sensor_id;sensor_type;location;lat;lon;timestamp;P1;durP1;ratioP1;P2;durP2;ratioP2
9722;SDS011;4900;49.306;8.500;2022-11-23T00:02:14;5.83;;;2.53;;
9722;SDS011;4900;49.306;8.500;2022-11-23T00:05:18;5.17;;;2.90;;
9722;SDS011;4900;49.306;8.500;2022-11-23T00:08:21;6.80;;;2.73;;
9722;SDS011;4900;49.306;8.500;2022-11-23T00:11:24;6.43;;;2.40;;
9722;SDS011;4900;49.306;8.500;2022-11-23T00:14:29;4.07;;;2.47;;
9722;SDS011;4900;49.306;8.500;2022-11-23T00:17:32;6.77;;;2.53;;
9722;SDS011;4900;49.306;8.500;2022-11-23T00:20:37;5.40;;;2.33;;
9722;SDS011;4900;49.306;8.500;2022-11-23T00:23:41;6.97;;;2.60;;
9722;SDS011;4900;49.306;8.500;2022-11-23T00:26:45;5.20;;;2.50;;
9722;SDS011;4900;49.306;8.500;2022-11-23T00:29:48;6.20;;;2.20;;
9722;SDS011;4900;49.306;8.500;2022-11-23T00:32:51;6.70;;;2.53;;
9722;SDS011;4900;49.306;8.500;2022-11-23T00:35:59;6.13;;;2.60;;
9722;SDS011;4900;49.306;8.500;2022-11-23T00:39:07;5.73;;;2.57;;
9722;SDS011;4900;49.306;8.500;2022-11-23T00:42:10;4.00;;;2.30;;
9722;SDS011;4900;49.306;8.500;2022-11-23T00:45:13;5.73;;;2.60;;
9722;SDS011;4900;49.306;8.500;2022-11-23T00:48:16;5.67;;;2.60;;
9722;SDS011;4900;49.306;8.500;2022-11-23T00:51:27;6.07;;;2.60;;
9722;SDS011;4900;49.306;8.500;2022-11-23T00:54:32;7.00;;;2.47;;
9722;SDS011;4900;49.306;8.500;2022-11-23T00:57:35;4.97;;;2.67;;
9722;SDS011;4900;49.306;8.500;2022-11-23T01:00:38;7.60;;;2.57;;
9722;SDS011;4900;49.306;8.500;2022-11-23T01:03:45;5.23;;;2.50;;
9722;SDS011;4900;49.306;8.500;2022-11-23T01:06:49;4.87;;;2.60;;
9722;SDS011;4900;49.306;8.500;2022-11-23T01:09:57;5.17;;;2.60;;
9722;SDS011;4900;49.306;8.500;2022-11-23T01:13:00;4.70;;;2.27;;
9722;SDS011;4900;49.306;8.500;2022-11-23T01:16:05;3.63;;;2.80;;
9722;SDS011;4900;49.306;8.500;2022-11-23T01:19:12;5.03;;;2.50;;
9722;SDS011;4900;49.306;8.500;2022-11-23T01:22:16;5.20;;;2.77;;
9722;SDS011;4900;49.306;8.500;2022-11-23T01:25:21;6.63;;;2.93;;
9722;SDS011;4900;49.306;8.500;2022-11-23T01:28:24;5.63;;;2.77;;
9722;SDS011;4900;49.306;8.500;2022-11-23T01:31:27;5.13;;;2.90;;
9722;SDS011;4900;49.306;8.500;2022-11-23T01:34:30;4.83;;;2.50;;
9722;SDS011;4900;49.306;8.500;2022-11-23T01:37:33;5.23;;;2.70;;
9722;SDS011;4900;49.306;8.500;2022-11-23T01:40:40;6.33;;;2.70;;
9722;SDS011;4900;49.306;8.500;2022-11-23T01:43:44;4.40;;;2.53;;
9722;SDS011;4900;49.306;8.500;2022-11-23T01:46:48;5.73;;;2.47;;
9722;SDS011;4900;49.306;8.500;2022-11-23T01:49:51;5.13;;;2.60;;
9722;SDS011;4900;49.306;8.500;2022-11-23T01:52:54;5.63;;;2.60;;
9722;SDS011;4900;49.306;8.500;2022-11-23T01:55:59;3.27;;;2.20;;
9722;SDS011;4900;49.306;8.500;2022-11-23T01:59:06;5.20;;;2.77;;
9722;SDS011;4900;49.306;8.500;2022-11-23T02:02:14;5.03;;;2.50;;
9722;SDS011;4900;49.306;8.500;2022-11-23T02:05:20;6.67;;;2.80;;
9722;SDS011;4900;49.306;8.500;2022-11-23T02:08:28;7.80;;;2.67;;
9722;SDS011;4900;49.306;8.500;2022-11-23T02:11:33;5.63;;;2.70;;
9722;SDS011;4900;49.306;8.500;2022-11-23T02:14:36;6.10;;;2.40;;
9722;SDS011;4900;49.306;8.500;2022-11-23T02:17:39;4.20;;;2.30;;
9722;SDS011;4900;49.306;8.500;2022-11-23T02:20:44;6.90;;;2.30;;
9722;SDS011;4900;49.306;8.500;2022-11-23T02:23:54;6.97;;;2.30;;
9722;SDS011;4900;49.306;8.500;2022-11-23T02:27:03;4.07;;;2.23;;
9722;SDS011;4900;49.306;8.500;2022-11-23T02:30:08;4.53;;;2.10;;
9722;SDS011;4900;49.306;8.500;2022-11-23T02:33:12;4.73;;;2.30;;
9722;SDS011;4900;49.306;8.500;2022-11-23T02:39:41;5.43;;;2.13;;
9722;SDS011;4900;49.306;8.500;2022-11-23T02:42:47;5.13;;;2.20;;
9722;SDS011;4900;49.306;8.500;2022-11-23T02:45:52;8.83;;;2.30;;
9722;SDS011;4900;49.306;8.500;2022-11-23T02:49:00;5.30;;;2.00;;
9722;SDS011;4900;49.306;8.500;2022-11-23T02:52:03;3.50;;;2.30;;
9722;SDS011;4900;49.306;8.500;2022-11-23T02:55:07;4.37;;;2.17;;
9722;SDS011;4900;49.306;8.500;2022-11-23T02:58:10;6.00;;;2.40;;
9722;SDS011;4900;49.306;8.500;2022-11-23T03:01:13;5.30;;;2.47;;
9722;SDS011;4900;49.306;8.500;2022-11-23T03:04:16;5.27;;;2.37;;
9722;SDS011;4900;49.306;8.500;2022-11-23T03:07:18;5.43;;;2.70;;
9722;SDS011;4900;49.306;8.500;2022-11-23T03:10:21;5.87;;;2.90;;
9722;SDS011;4900;49.306;8.500;2022-11-23T03:13:24;8.67;;;2.83;;
9722;SDS011;4900;49.306;8.500;2022-11-23T03:16:27;5.80;;;2.60;;
9722;SDS011;4900;49.306;8.500;2022-11-23T03:19:30;7.07;;;2.30;;
9722;SDS011;4900;49.306;8.500;2022-11-23T03:22:33;5.30;;;2.20;;
9722;SDS011;4900;49.306;8.500;2022-11-23T03:25:36;4.23;;;1.97;;
9722;SDS011;4900;49.306;8.500;2022-11-23T03:28:39;4.90;;;2.33;;
9722;SDS011;4900;49.306;8.500;2022-11-23T03:31:42;3.37;;;2.00;;
9722;SDS011;4900;49.306;8.500;2022-11-23T03:34:45;6.30;;;2.50;;
9722;SDS011;4900;49.306;8.500;2022-11-23T03:37:48;3.20;;;1.80;;
9722;SDS011;4900;49.306;8.500;2022-11-23T03:40:51;5.20;;;2.27;;
9722;SDS011;4900;49.306;8.500;2022-11-23T03:43:54;4.60;;;2.00;;
9722;SDS011;4900;49.306;8.500;2022-11-23T03:46:57;6.50;;;2.37;;
9722;SDS011;4900;49.306;8.500;2022-11-23T03:50:01;4.80;;;2.20;;
9722;SDS011;4900;49.306;8.500;2022-11-23T03:53:04;6.03;;;2.30;;
9722;SDS011;4900;49.306;8.500;2022-11-23T03:56:07;4.87;;;2.00;;
9722;SDS011;4900;49.306;8.500;2022-11-23T03:59:10;5.37;;;2.30;;
9722;SDS011;4900;49.306;8.500;2022-11-23T04:02:14;6.30;;;2.20;;
9722;SDS011;4900;49.306;8.500;2022-11-23T04:05:16;3.10;;;2.17;;
9722;SDS011;4900;49.306;8.500;2022-11-23T04:08:20;4.73;;;2.30;;
9722;SDS011;4900;49.306;8.500;2022-11-23T04:11:23;6.20;;;2.53;;
9722;SDS011;4900;49.306;8.500;2022-11-23T04:14:26;3.93;;;2.23;;
9722;SDS011;4900;49.306;8.500;2022-11-23T04:17:28;5.77;;;2.53;;
9722;SDS011;4900;49.306;8.500;2022-11-23T04:20:31;4.23;;;2.50;;
9722;SDS011;4900;49.306;8.500;2022-11-23T04:23:34;5.43;;;2.70;;
9722;SDS011;4900;49.306;8.500;2022-11-23T04:26:37;5.17;;;2.60;;
9722;SDS011;4900;49.306;8.500;2022-11-23T04:29:41;5.93;;;2.70;;
9722;SDS011;4900;49.306;8.500;2022-11-23T04:32:44;6.60;;;2.50;;
9722;SDS011;4900;49.306;8.500;2022-11-23T04:35:48;4.77;;;2.40;;
9722;SDS011;4900;49.306;8.500;2022-11-23T04:38:51;3.60;;;2.47;;
9722;SDS011;4900;49.306;8.500;2022-11-23T04:41:54;6.07;;;2.27;;
9722;SDS011;4900;49.306;8.500;2022-11-23T04:44:57;4.97;;;2.30;;
9722;SDS011;4900;49.306;8.500;2022-11-23T04:48:00;5.83;;;2.33;;
9722;SDS011;4900;49.306;8.500;2022-11-23T04:51:02;6.30;;;2.50;;
9722;SDS011;4900;49.306;8.500;2022-11-23T04:54:06;5.73;;;2.17;;
9722;SDS011;4900;49.306;8.500;2022-11-23T04:57:09;3.77;;;2.17;;
9722;SDS011;4900;49.306;8.500;2022-11-23T05:00:12;3.20;;;2.00;;
9722;SDS011;4900;49.306;8.500;2022-11-23T05:03:16;4.43;;;2.27;;
9722;SDS011;4900;49.306;8.500;2022-11-23T05:06:19;4.63;;;1.93;;
9722;SDS011;4900;49.306;8.500;2022-11-23T05:09:22;3.20;;;2.20;;
9722;SDS011;4900;49.306;8.500;2022-11-23T05:12:25;2.77;;;2.03;;
9722;SDS011;4900;49.306;8.500;2022-11-23T05:15:28;5.37;;;2.37;;
9722;SDS011;4900;49.306;8.500;2022-11-23T05:18:31;4.40;;;2.10;;
9722;SDS011;4900;49.306;8.500;2022-11-23T05:21:34;4.70;;;2.20;;
9722;SDS011;4900;49.306;8.500;2022-11-23T05:24:36;2.90;;;1.97;;
9722;SDS011;4900;49.306;8.500;2022-11-23T05:27:39;3.70;;;2.17;;
9722;SDS011;4900;49.306;8.500;2022-11-23T05:30:42;4.80;;;2.17;;
9722;SDS011;4900;49.306;8.500;2022-11-23T05:33:46;4.33;;;2.20;;
9722;SDS011;4900;49.306;8.500;2022-11-23T05:36:48;5.07;;;2.20;;
9722;SDS011;4900;49.306;8.500;2022-11-23T05:39:51;5.47;;;2.20;;
9722;SDS011;4900;49.306;8.500;2022-11-23T05:42:55;6.33;;;2.50;;
9722;SDS011;4900;49.306;8.500;2022-11-23T05:45:59;5.07;;;2.27;;
9722;SDS011;4900;49.306;8.500;2022-11-23T05:49:03;5.47;;;2.50;;
9722;SDS011;4900;49.306;8.500;2022-11-23T05:52:06;5.37;;;2.20;;
9722;SDS011;4900;49.306;8.500;2022-11-23T05:55:09;5.30;;;2.10;;
9722;SDS011;4900;49.306;8.500;2022-11-23T05:58:12;4.27;;;2.00;;
9722;SDS011;4900;49.306;8.500;2022-11-23T06:01:15;5.00;;;2.00;;
9722;SDS011;4900;49.306;8.500;2022-11-23T06:04:21;3.87;;;2.30;;
9722;SDS011;4900;49.306;8.500;2022-11-23T06:07:28;3.70;;;2.07;;
9722;SDS011;4900;49.306;8.500;2022-11-23T06:10:31;5.27;;;2.47;;
9722;SDS011;4900;49.306;8.500;2022-11-23T06:13:34;5.13;;;2.40;;
9722;SDS011;4900;49.306;8.500;2022-11-23T06:16:37;4.77;;;2.30;;
9722;SDS011;4900;49.306;8.500;2022-11-23T06:19:40;6.27;;;3.20;;
9722;SDS011;4900;49.306;8.500;2022-11-23T06:22:42;5.50;;;3.10;;
9722;SDS011;4900;49.306;8.500;2022-11-23T06:25:45;4.70;;;2.90;;
9722;SDS011;4900;49.306;8.500;2022-11-23T06:28:48;3.87;;;2.70;;
9722;SDS011;4900;49.306;8.500;2022-11-23T06:31:51;5.90;;;3.00;;
9722;SDS011;4900;49.306;8.500;2022-11-23T06:34:54;6.10;;;3.17;;
9722;SDS011;4900;49.306;8.500;2022-11-23T06:37:57;9.60;;;7.30;;
9722;SDS011;4900;49.306;8.500;2022-11-23T06:41:01;11.27;;;7.50;;
9722;SDS011;4900;49.306;8.500;2022-11-23T06:44:04;7.17;;;4.70;;
9722;SDS011;4900;49.306;8.500;2022-11-23T06:47:07;6.23;;;4.57;;
9722;SDS011;4900;49.306;8.500;2022-11-23T06:50:10;6.23;;;4.43;;
9722;SDS011;4900;49.306;8.500;2022-11-23T06:53:13;6.07;;;3.90;;
9722;SDS011;4900;49.306;8.500;2022-11-23T06:56:16;6.80;;;4.17;;
9722;SDS011;4900;49.306;8.500;2022-11-23T06:59:19;7.63;;;4.07;;
9722;SDS011;4900;49.306;8.500;2022-11-23T07:02:22;6.50;;;3.70;;
9722;SDS011;4900;49.306;8.500;2022-11-23T07:05:25;7.43;;;3.47;;
9722;SDS011;4900;49.306;8.500;2022-11-23T07:08:29;5.00;;;3.40;;
9722;SDS011;4900;49.306;8.500;2022-11-23T07:11:32;5.37;;;3.60;;
9722;SDS011;4900;49.306;8.500;2022-11-23T07:14:35;6.53;;;4.20;;
9722;SDS011;4900;49.306;8.500;2022-11-23T07:17:39;6.60;;;4.60;;
9722;SDS011;4900;49.306;8.500;2022-11-23T07:20:43;8.47;;;5.57;;
9722;SDS011;4900;49.306;8.500;2022-11-23T07:23:46;13.67;;;8.00;;
9722;SDS011;4900;49.306;8.500;2022-11-23T07:26:49;13.57;;;9.17;;
9722;SDS011;4900;49.306;8.500;2022-11-23T07:29:52;14.80;;;9.40;;
9722;SDS011;4900;49.306;8.500;2022-11-23T07:32:58;15.47;;;8.57;;
9722;SDS011;4900;49.306;8.500;2022-11-23T07:36:03;11.50;;;8.03;;
9722;SDS011;4900;49.306;8.500;2022-11-23T07:39:06;14.77;;;8.73;;
9722;SDS011;4900;49.306;8.500;2022-11-23T07:42:09;16.13;;;9.60;;
9722;SDS011;4900;49.306;8.500;2022-11-23T07:45:12;13.70;;;8.37;;
9722;SDS011;4900;49.306;8.500;2022-11-23T07:48:18;15.97;;;8.77;;
9722;SDS011;4900;49.306;8.500;2022-11-23T07:51:21;14.63;;;7.93;;
9722;SDS011;4900;49.306;8.500;2022-11-23T07:54:24;15.10;;;7.10;;
9722;SDS011;4900;49.306;8.500;2022-11-23T07:57:27;12.53;;;7.03;;
9722;SDS011;4900;49.306;8.500;2022-11-23T08:00:30;13.63;;;7.03;;
9722;SDS011;4900;49.306;8.500;2022-11-23T08:03:33;11.00;;;4.37;;
9722;SDS011;4900;49.306;8.500;2022-11-23T08:06:36;7.37;;;3.40;;
9722;SDS011;4900;49.306;8.500;2022-11-23T08:09:39;7.17;;;3.40;;
9722;SDS011;4900;49.306;8.500;2022-11-23T08:12:42;4.90;;;2.70;;
9722;SDS011;4900;49.306;8.500;2022-11-23T08:15:45;6.50;;;3.33;;
9722;SDS011;4900;49.306;8.500;2022-11-23T08:18:48;7.40;;;4.03;;
9722;SDS011;4900;49.306;8.500;2022-11-23T08:21:52;5.43;;;3.10;;
9722;SDS011;4900;49.306;8.500;2022-11-23T08:24:55;5.80;;;3.13;;
9722;SDS011;4900;49.306;8.500;2022-11-23T08:27:59;6.03;;;3.17;;
9722;SDS011;4900;49.306;8.500;2022-11-23T08:31:07;9.13;;;3.40;;
9722;SDS011;4900;49.306;8.500;2022-11-23T08:34:12;5.90;;;2.77;;
9722;SDS011;4900;49.306;8.500;2022-11-23T08:37:15;5.33;;;2.93;;
9722;SDS011;4900;49.306;8.500;2022-11-23T08:40:18;7.37;;;3.03;;
9722;SDS011;4900;49.306;8.500;2022-11-23T08:43:22;6.57;;;2.50;;
9722;SDS011;4900;49.306;8.500;2022-11-23T08:46:24;4.77;;;2.40;;
9722;SDS011;4900;49.306;8.500;2022-11-23T08:49:27;4.70;;;2.30;;
9722;SDS011;4900;49.306;8.500;2022-11-23T08:52:30;4.73;;;2.40;;
9722;SDS011;4900;49.306;8.500;2022-11-23T08:55:33;5.83;;;2.50;;
9722;SDS011;4900;49.306;8.500;2022-11-23T08:58:36;5.80;;;2.67;;
9722;SDS011;4900;49.306;8.500;2022-11-23T09:01:39;5.97;;;2.77;;
9722;SDS011;4900;49.306;8.500;2022-11-23T09:04:42;4.37;;;2.43;;
9722;SDS011;4900;49.306;8.500;2022-11-23T09:07:45;4.63;;;2.50;;
9722;SDS011;4900;49.306;8.500;2022-11-23T09:10:48;4.30;;;2.20;;
9722;SDS011;4900;49.306;8.500;2022-11-23T09:13:51;5.57;;;2.30;;
9722;SDS011;4900;49.306;8.500;2022-11-23T09:16:54;7.53;;;2.40;;
9722;SDS011;4900;49.306;8.500;2022-11-23T09:19:57;3.67;;;2.20;;
9722;SDS011;4900;49.306;8.500;2022-11-23T09:23:00;4.03;;;2.30;;
9722;SDS011;4900;49.306;8.500;2022-11-23T09:26:03;4.07;;;2.27;;
9722;SDS011;4900;49.306;8.500;2022-11-23T09:29:06;6.23;;;2.77;;
9722;SDS011;4900;49.306;8.500;2022-11-23T09:32:10;5.00;;;2.47;;
9722;SDS011;4900;49.306;8.500;2022-11-23T09:35:13;7.43;;;2.40;;
9722;SDS011;4900;49.306;8.500;2022-11-23T09:38:15;7.00;;;2.40;;
9722;SDS011;4900;49.306;8.500;2022-11-23T09:47:44;3.57;;;2.00;;
9722;SDS011;4900;49.306;8.500;2022-11-23T09:51:13;5.77;;;2.80;;
9722;SDS011;4900;49.306;8.500;2022-11-23T09:57:25;4.60;;;2.33;;
9722;SDS011;4900;49.306;8.500;2022-11-23T10:00:40;4.10;;;2.33;;
9722;SDS011;4900;49.306;8.500;2022-11-23T10:03:47;5.07;;;2.67;;
9722;SDS011;4900;49.306;8.500;2022-11-23T10:06:55;7.70;;;2.50;;
9722;SDS011;4900;49.306;8.500;2022-11-23T10:10:08;4.73;;;2.90;;
9722;SDS011;4900;49.306;8.500;2022-11-23T10:19:54;7.93;;;2.80;;
9722;SDS011;4900;49.306;8.500;2022-11-23T10:26:57;6.27;;;2.47;;
9722;SDS011;4900;49.306;8.500;2022-11-23T10:30:00;4.37;;;2.57;;
9722;SDS011;4900;49.306;8.500;2022-11-23T10:36:11;5.23;;;2.00;;
9722;SDS011;4900;49.306;8.500;2022-11-23T10:42:46;5.37;;;1.93;;
9722;SDS011;4900;49.306;8.500;2022-11-23T10:49:31;4.43;;;2.23;;
9722;SDS011;4900;49.306;8.500;2022-11-23T10:52:35;6.47;;;2.30;;
9722;SDS011;4900;49.306;8.500;2022-11-23T10:55:57;6.93;;;2.10;;
9722;SDS011;4900;49.306;8.500;2022-11-23T10:59:01;4.87;;;2.00;;
9722;SDS011;4900;49.306;8.500;2022-11-23T11:06:06;4.23;;;2.00;;
9722;SDS011;4900;49.306;8.500;2022-11-23T11:09:17;5.07;;;2.13;;
9722;SDS011;4900;49.306;8.500;2022-11-23T11:12:22;4.57;;;2.50;;
9722;SDS011;4900;49.306;8.500;2022-11-23T11:15:25;3.75;;;1.98;;
9722;SDS011;4900;49.306;8.500;2022-11-23T11:18:30;7.18;;;2.25;;
9722;SDS011;4900;49.306;8.500;2022-11-23T11:21:39;4.30;;;2.10;;
9722;SDS011;4900;49.306;8.500;2022-11-23T11:24:43;3.67;;;1.92;;
9722;SDS011;4900;49.306;8.500;2022-11-23T11:27:51;7.40;;;2.30;;
9722;SDS011;4900;49.306;8.500;2022-11-23T11:34:33;5.40;;;1.98;;
9722;SDS011;4900;49.306;8.500;2022-11-23T11:37:43;6.22;;;2.15;;
9722;SDS011;4900;49.306;8.500;2022-11-23T11:40:49;5.00;;;2.17;;
9722;SDS011;4900;49.306;8.500;2022-11-23T11:43:56;5.65;;;2.05;;
9722;SDS011;4900;49.306;8.500;2022-11-23T11:50:43;5.55;;;2.03;;
9722;SDS011;4900;49.306;8.500;2022-11-23T11:53:48;6.63;;;2.40;;
9722;SDS011;4900;49.306;8.500;2022-11-23T11:57:02;4.45;;;2.47;;
9722;SDS011;4900;49.306;8.500;2022-11-23T12:00:13;4.20;;;2.50;;
9722;SDS011;4900;49.306;8.500;2022-11-23T12:03:24;6.47;;;2.53;;
9722;SDS011;4900;49.306;8.500;2022-11-23T12:06:42;6.60;;;2.25;;
9722;SDS011;4900;49.306;8.500;2022-11-23T12:10:26;5.65;;;1.80;;
9722;SDS011;4900;49.306;8.500;2022-11-23T12:20:29;5.68;;;1.83;;
9722;SDS011;4900;49.306;8.500;2022-11-23T12:23:55;2.65;;;1.52;;
9722;SDS011;4900;49.306;8.500;2022-11-23T12:40:08;6.97;;;2.20;;
9722;SDS011;4900;49.306;8.500;2022-11-23T12:43:25;3.85;;;1.73;;
9722;SDS011;4900;49.306;8.500;2022-11-23T12:46:39;3.83;;;1.77;;
9722;SDS011;4900;49.306;8.500;2022-11-23T12:49:53;4.68;;;1.70;;
9722;SDS011;4900;49.306;8.500;2022-11-23T12:56:50;3.47;;;1.65;;
9722;SDS011;4900;49.306;8.500;2022-11-23T12:59:59;4.10;;;1.98;;
9722;SDS011;4900;49.306;8.500;2022-11-23T13:17:18;6.00;;;1.95;;
9722;SDS011;4900;49.306;8.500;2022-11-23T13:21:02;5.13;;;2.03;;
9722;SDS011;4900;49.306;8.500;2022-11-23T13:24:32;6.38;;;1.88;;
9722;SDS011;4900;49.306;8.500;2022-11-23T13:31:34;4.78;;;2.30;;
9722;SDS011;4900;49.306;8.500;2022-11-23T13:41:02;4.90;;;1.83;;
9722;SDS011;4900;49.306;8.500;2022-11-23T13:47:35;4.70;;;1.65;;
9722;SDS011;4900;49.306;8.500;2022-11-23T13:50:39;3.63;;;1.75;;
9722;SDS011;4900;49.306;8.500;2022-11-23T13:54:02;4.03;;;2.20;;
9722;SDS011;4900;49.306;8.500;2022-11-23T13:57:09;3.97;;;2.20;;
9722;SDS011;4900;49.306;8.500;2022-11-23T14:03:50;3.35;;;1.67;;
9722;SDS011;4900;49.306;8.500;2022-11-23T14:07:08;1.95;;;1.30;;
9722;SDS011;4900;49.306;8.500;2022-11-23T14:10:24;3.30;;;1.55;;
9722;SDS011;4900;49.306;8.500;2022-11-23T14:13:31;2.65;;;1.58;;
9722;SDS011;4900;49.306;8.500;2022-11-23T14:20:18;2.33;;;1.40;;
9722;SDS011;4900;49.306;8.500;2022-11-23T14:27:10;4.70;;;1.90;;
9722;SDS011;4900;49.306;8.500;2022-11-23T14:41:00;3.17;;;1.93;;
9722;SDS011;4900;49.306;8.500;2022-11-23T14:44:12;2.77;;;1.80;;
9722;SDS011;4900;49.306;8.500;2022-11-23T14:47:23;2.80;;;2.10;;
9722;SDS011;4900;49.306;8.500;2022-11-23T14:50:29;5.83;;;2.00;;
9722;SDS011;4900;49.306;8.500;2022-11-23T14:53:43;3.07;;;2.00;;
9722;SDS011;4900;49.306;8.500;2022-11-23T14:56:51;6.30;;;2.10;;
9722;SDS011;4900;49.306;8.500;2022-11-23T15:00:02;3.00;;;1.93;;
9722;SDS011;4900;49.306;8.500;2022-11-23T15:03:13;2.80;;;1.90;;
9722;SDS011;4900;49.306;8.500;2022-11-23T15:06:18;2.70;;;1.80;;
9722;SDS011;4900;49.306;8.500;2022-11-23T15:12:42;4.47;;;1.90;;
9722;SDS011;4900;49.306;8.500;2022-11-23T15:15:48;3.43;;;2.30;;
9722;SDS011;4900;49.306;8.500;2022-11-23T15:18:53;4.73;;;2.77;;
9722;SDS011;4900;49.306;8.500;2022-11-23T15:21:56;6.53;;;4.10;;
9722;SDS011;4900;49.306;8.500;2022-11-23T15:25:03;5.33;;;3.30;;
9722;SDS011;4900;49.306;8.500;2022-11-23T15:28:15;5.53;;;2.73;;
9722;SDS011;4900;49.306;8.500;2022-11-23T15:34:34;2.63;;;2.17;;
9722;SDS011;4900;49.306;8.500;2022-11-23T15:37:46;3.40;;;2.10;;
9722;SDS011;4900;49.306;8.500;2022-11-23T15:40:51;4.57;;;2.53;;
9722;SDS011;4900;49.306;8.500;2022-11-23T15:43:56;4.73;;;2.30;;
9722;SDS011;4900;49.306;8.500;2022-11-23T15:47:03;4.10;;;2.50;;
9722;SDS011;4900;49.306;8.500;2022-11-23T15:50:08;5.70;;;3.00;;
9722;SDS011;4900;49.306;8.500;2022-11-23T15:53:11;4.77;;;2.77;;
9722;SDS011;4900;49.306;8.500;2022-11-23T16:02:39;9.07;;;7.13;;
9722;SDS011;4900;49.306;8.500;2022-11-23T16:05:42;10.90;;;7.87;;
9722;SDS011;4900;49.306;8.500;2022-11-23T16:08:45;9.63;;;7.13;;
9722;SDS011;4900;49.306;8.500;2022-11-23T16:11:48;8.40;;;7.00;;
9722;SDS011;4900;49.306;8.500;2022-11-23T16:14:52;12.93;;;8.23;;
9722;SDS011;4900;49.306;8.500;2022-11-23T16:17:57;9.70;;;7.30;;
9722;SDS011;4900;49.306;8.500;2022-11-23T16:21:02;11.03;;;8.47;;
9722;SDS011;4900;49.306;8.500;2022-11-23T16:24:14;10.33;;;8.40;;
9722;SDS011;4900;49.306;8.500;2022-11-23T16:27:22;14.37;;;9.40;;
9722;SDS011;4900;49.306;8.500;2022-11-23T16:30:34;12.97;;;9.27;;
9722;SDS011;4900;49.306;8.500;2022-11-23T16:33:39;11.70;;;8.57;;
9722;SDS011;4900;49.306;8.500;2022-11-23T16:36:42;12.17;;;8.27;;
9722;SDS011;4900;49.306;8.500;2022-11-23T16:39:45;12.70;;;9.33;;
9722;SDS011;4900;49.306;8.500;2022-11-23T16:42:51;14.63;;;8.57;;
9722;SDS011;4900;49.306;8.500;2022-11-23T16:45:54;13.90;;;9.53;;
9722;SDS011;4900;49.306;8.500;2022-11-23T16:48:58;9.73;;;6.13;;
9722;SDS011;4900;49.306;8.500;2022-11-23T16:52:01;7.90;;;5.83;;
9722;SDS011;4900;49.306;8.500;2022-11-23T16:55:05;7.80;;;4.80;;
9722;SDS011;4900;49.306;8.500;2022-11-23T16:58:08;8.60;;;6.03;;
9722;SDS011;4900;49.306;8.500;2022-11-23T17:01:19;7.93;;;6.17;;
9722;SDS011;4900;49.306;8.500;2022-11-23T17:04:25;7.93;;;6.03;;
9722;SDS011;4900;49.306;8.500;2022-11-23T17:07:28;7.23;;;4.90;;
9722;SDS011;4900;49.306;8.500;2022-11-23T17:10:31;5.13;;;3.40;;
9722;SDS011;4900;49.306;8.500;2022-11-23T17:13:34;5.23;;;3.63;;
9722;SDS011;4900;49.306;8.500;2022-11-23T17:16:37;5.63;;;3.50;;
9722;SDS011;4900;49.306;8.500;2022-11-23T17:19:40;8.40;;;3.70;;
9722;SDS011;4900;49.306;8.500;2022-11-23T17:22:43;5.87;;;3.70;;
9722;SDS011;4900;49.306;8.500;2022-11-23T17:25:47;5.67;;;3.90;;
9722;SDS011;4900;49.306;8.500;2022-11-23T17:28:50;5.40;;;4.00;;
9722;SDS011;4900;49.306;8.500;2022-11-23T17:31:53;5.93;;;4.27;;
9722;SDS011;4900;49.306;8.500;2022-11-23T17:34:56;9.33;;;5.30;;
9722;SDS011;4900;49.306;8.500;2022-11-23T17:38:00;9.37;;;6.10;;
9722;SDS011;4900;49.306;8.500;2022-11-23T17:41:03;11.50;;;6.40;;
9722;SDS011;4900;49.306;8.500;2022-11-23T17:44:07;10.77;;;6.53;;
9722;SDS011;4900;49.306;8.500;2022-11-23T17:47:24;14.30;;;7.10;;
9722;SDS011;4900;49.306;8.500;2022-11-23T17:50:32;9.83;;;6.17;;
9722;SDS011;4900;49.306;8.500;2022-11-23T17:53:35;7.80;;;5.00;;
9722;SDS011;4900;49.306;8.500;2022-11-23T17:56:38;8.57;;;4.90;;
9722;SDS011;4900;49.306;8.500;2022-11-23T17:59:41;11.37;;;6.43;;
9722;SDS011;4900;49.306;8.500;2022-11-23T18:02:44;7.60;;;5.60;;
9722;SDS011;4900;49.306;8.500;2022-11-23T18:05:47;7.50;;;5.63;;
9722;SDS011;4900;49.306;8.500;2022-11-23T18:08:50;8.47;;;5.87;;
9722;SDS011;4900;49.306;8.500;2022-11-23T18:11:53;8.43;;;6.17;;
9722;SDS011;4900;49.306;8.500;2022-11-23T18:14:56;10.07;;;6.33;;
9722;SDS011;4900;49.306;8.500;2022-11-23T18:17:59;9.83;;;5.50;;
9722;SDS011;4900;49.306;8.500;2022-11-23T18:21:02;8.23;;;5.20;;
9722;SDS011;4900;49.306;8.500;2022-11-23T18:24:07;9.60;;;5.50;;
9722;SDS011;4900;49.306;8.500;2022-11-23T18:27:13;6.80;;;4.57;;
9722;SDS011;4900;49.306;8.500;2022-11-23T18:30:16;7.93;;;4.80;;
9722;SDS011;4900;49.306;8.500;2022-11-23T18:33:18;6.47;;;4.20;;
9722;SDS011;4900;49.306;8.500;2022-11-23T18:36:21;19.00;;;10.67;;
9722;SDS011;4900;49.306;8.500;2022-11-23T18:39:25;13.57;;;7.67;;
9722;SDS011;4900;49.306;8.500;2022-11-23T18:42:27;14.37;;;8.70;;
9722;SDS011;4900;49.306;8.500;2022-11-23T18:45:30;11.07;;;7.27;;
9722;SDS011;4900;49.306;8.500;2022-11-23T18:48:33;7.20;;;4.70;;
9722;SDS011;4900;49.306;8.500;2022-11-23T18:51:37;7.00;;;3.60;;
9722;SDS011;4900;49.306;8.500;2022-11-23T18:54:40;7.87;;;4.00;;
9722;SDS011;4900;49.306;8.500;2022-11-23T18:57:43;5.67;;;3.90;;
9722;SDS011;4900;49.306;8.500;2022-11-23T19:00:47;5.80;;;3.80;;
9722;SDS011;4900;49.306;8.500;2022-11-23T19:03:51;5.60;;;3.60;;
9722;SDS011;4900;49.306;8.500;2022-11-23T19:06:55;9.20;;;4.70;;
9722;SDS011;4900;49.306;8.500;2022-11-23T19:09:58;7.50;;;3.80;;
9722;SDS011;4900;49.306;8.500;2022-11-23T19:13:01;6.20;;;3.80;;
9722;SDS011;4900;49.306;8.500;2022-11-23T19:16:08;4.10;;;3.40;;
9722;SDS011;4900;49.306;8.500;2022-11-23T19:19:12;6.27;;;4.63;;
9722;SDS011;4900;49.306;8.500;2022-11-23T19:22:15;7.30;;;4.70;;
9722;SDS011;4900;49.306;8.500;2022-11-23T19:25:18;7.00;;;4.70;;
9722;SDS011;4900;49.306;8.500;2022-11-23T19:28:21;4.90;;;3.77;;
9722;SDS011;4900;49.306;8.500;2022-11-23T19:31:25;4.93;;;4.00;;
9722;SDS011;4900;49.306;8.500;2022-11-23T19:34:30;5.60;;;4.30;;
9722;SDS011;4900;49.306;8.500;2022-11-23T19:37:34;5.10;;;4.60;;
9722;SDS011;4900;49.306;8.500;2022-11-23T19:40:38;8.30;;;4.87;;
9722;SDS011;4900;49.306;8.500;2022-11-23T19:43:41;6.20;;;5.00;;
9722;SDS011;4900;49.306;8.500;2022-11-23T19:46:44;7.10;;;5.20;;
9722;SDS011;4900;49.306;8.500;2022-11-23T19:49:47;7.53;;;5.40;;
9722;SDS011;4900;49.306;8.500;2022-11-23T19:52:50;7.13;;;5.70;;
9722;SDS011;4900;49.306;8.500;2022-11-23T19:55:58;9.80;;;6.27;;
9722;SDS011;4900;49.306;8.500;2022-11-23T19:59:03;7.93;;;6.20;;
9722;SDS011;4900;49.306;8.500;2022-11-23T20:02:07;8.23;;;6.47;;
9722;SDS011;4900;49.306;8.500;2022-11-23T20:05:25;9.10;;;5.97;;
9722;SDS011;4900;49.306;8.500;2022-11-23T20:08:29;7.20;;;5.70;;
9722;SDS011;4900;49.306;8.500;2022-11-23T20:11:32;9.43;;;6.97;;
9722;SDS011;4900;49.306;8.500;2022-11-23T20:14:36;8.90;;;5.93;;
9722;SDS011;4900;49.306;8.500;2022-11-23T20:17:39;9.80;;;6.70;;
9722;SDS011;4900;49.306;8.500;2022-11-23T20:20:43;8.27;;;6.00;;
9722;SDS011;4900;49.306;8.500;2022-11-23T20:23:47;8.80;;;6.47;;
9722;SDS011;4900;49.306;8.500;2022-11-23T20:26:55;6.47;;;5.20;;
9722;SDS011;4900;49.306;8.500;2022-11-23T20:29:58;8.53;;;5.50;;
9722;SDS011;4900;49.306;8.500;2022-11-23T20:33:02;6.43;;;4.70;;
9722;SDS011;4900;49.306;8.500;2022-11-23T20:36:06;5.07;;;4.17;;
9722;SDS011;4900;49.306;8.500;2022-11-23T20:39:11;4.70;;;3.97;;
9722;SDS011;4900;49.306;8.500;2022-11-23T20:42:15;4.13;;;3.57;;
9722;SDS011;4900;49.306;8.500;2022-11-23T20:45:17;4.13;;;3.37;;
9722;SDS011;4900;49.306;8.500;2022-11-23T20:48:21;4.67;;;3.47;;
9722;SDS011;4900;49.306;8.500;2022-11-23T20:51:24;3.20;;;2.73;;
9722;SDS011;4900;49.306;8.500;2022-11-23T20:54:29;4.77;;;3.20;;
9722;SDS011;4900;49.306;8.500;2022-11-23T20:57:32;6.33;;;2.90;;
9722;SDS011;4900;49.306;8.500;2022-11-23T21:00:35;4.40;;;2.60;;
9722;SDS011;4900;49.306;8.500;2022-11-23T21:03:38;6.00;;;2.90;;
9722;SDS011;4900;49.306;8.500;2022-11-23T21:06:42;4.87;;;3.13;;
9722;SDS011;4900;49.306;8.500;2022-11-23T21:09:45;5.13;;;2.90;;
9722;SDS011;4900;49.306;8.500;2022-11-23T21:12:48;6.23;;;2.90;;
9722;SDS011;4900;49.306;8.500;2022-11-23T21:16:12;4.33;;;2.57;;
9722;SDS011;4900;49.306;8.500;2022-11-23T21:19:15;5.40;;;2.80;;
9722;SDS011;4900;49.306;8.500;2022-11-23T21:22:18;7.40;;;3.07;;